Hines Creek, Canada
Current Conditions -  °F | °C
As of 5:00 PM on Friday 24 Oct 2014 (Local Time) from CYPE Reporting Station
Overcast Overcast  
Wind Chill: -1°   Ceiling: 1200
Heat Index:   Visibility: 15mi
Dew Point:   Wind: 13mph
Humidity: 87%   Direction: 280°W
Pressure: 29.86"   Gusts: 22mph
Location:  56.23°N, 118.6°W
Report Text: CYPE 242300Z 28011G19KT 15SM FEW008 BKN012 OVC040 03/01 A2986 RMK SF1SC4SC3 SLP138
Loading
Personal Weather Stations






























Interactive Weather Map
Tropical Storm Tracking
New forecast layout! Learn more

10-Day Weather Forecast

Advertisements
Track Severe Weather on mobile